Time;durP1;ratioP1;P1;durP2;ratioP2;P2;SDS_P1;SDS_P2;PMS_P1;PMS_P2;Temp;Humidity;BMP_temperature;BMP_pressure;BME280_temperature;BME280_humidity;BME280_pressure;Samples;Min_cycle;Max_cycle;Signal;HPM_P1;HPM_P2
2022/04/06 00:01:48;;;;;;;10.43;9.30;;;;;;;;;;5072791;28;20203;-54
2022/04/06 00:04:15;;;;;;;18.07;10.17;;;;;;;;;;5071042;28;20215;-53
2022/04/06 00:06:41;;;;;;;14.57;10.63;;;;;;;;;;5072891;28;20253;-53
2022/04/06 00:09:08;;;;;;;11.87;10.03;;;;;;;;;;5072683;28;20658;-54
2022/04/06 00:11:34;;;;;;;13.30;11.13;;;;;;;;;;5072866;28;20200;-54
2022/04/06 00:14:00;;;;;;;16.07;12.20;;;;;;;;;;5072701;28;20196;-54
2022/04/06 00:16:26;;;;;;;15.13;10.97;;;;;;;;;;5072655;28;20249;-54
2022/04/06 00:18:52;;;;;;;15.17;10.53;;;;;;;;;;5072758;28;20192;-55
2022/04/06 00:21:25;;;;;;;14.77;11.57;;;;;;;;;;5072432;28;20837;-57
2022/04/06 00:23:51;;;;;;;13.30;11.20;;;;;;;;;;5072500;28;20227;-55
2022/04/06 00:26:18;;;;;;;14.73;10.97;;;;;;;;;;5072396;28;20202;-55
2022/04/06 00:28:44;;;;;;;15.43;11.40;;;;;;;;;;5072328;28;20210;-55
2022/04/06 00:31:11;;;;;;;14.10;11.70;;;;;;;;;;5072159;28;20282;-56
2022/04/06 00:33:37;;;;;;;15.60;11.23;;;;;;;;;;5072276;28;20926;-55
2022/04/06 00:36:03;;;;;;;14.90;11.23;;;;;;;;;;5072340;28;20199;-54
2022/04/06 00:38:29;;;;;;;18.10;11.93;;;;;;;;;;5072508;28;20290;-54
2022/04/06 00:40:55;;;;;;;14.53;11.50;;;;;;;;;;5072423;28;20234;-54
2022/04/06 00:43:22;;;;;;;16.83;11.63;;;;;;;;;;5072091;28;20311;-55
2022/04/06 00:45:48;;;;;;;19.80;12.57;;;;;;;;;;5072241;28;20879;-55
2022/04/06 00:48:14;;;;;;;14.73;11.87;;;;;;;;;;5071917;28;20286;-55
2022/04/06 00:50:44;;;;;;;15.73;12.00;;;;;;;;;;5072301;28;20198;-55
2022/04/06 00:53:12;;;;;;;13.63;12.10;;;;;;;;;;5071907;28;20270;-55
2022/04/06 00:55:39;;;;;;;15.00;11.73;;;;;;;;;;5072151;28;20204;-55
2022/04/06 00:58:06;;;;;;;13.27;11.63;;;;;;;;;;5071963;28;20203;-55
2022/04/06 01:00:34;;;;;;;14.10;12.60;;;;;;;;;;5071876;28;20267;-56
2022/04/06 01:03:00;;;;;;;18.70;12.20;;;;;;;;;;5071916;28;20717;-55
2022/04/06 01:05:26;;;;;;;17.83;12.13;;;;;;;;;;5072046;28;20328;-55
2022/04/06 01:07:53;;;;;;;17.13;12.80;;;;;;;;;;5072041;28;20213;-55
2022/04/06 01:10:19;;;;;;;15.10;12.90;;;;;;;;;;5071902;28;20290;-55
2022/04/06 01:12:48;;;;;;;18.80;12.87;;;;;;;;;;5072234;28;20282;-55
2022/04/06 01:15:15;;;;;;;15.87;13.17;;;;;;;;;;5071935;28;20238;-55
2022/04/06 01:17:43;;;;;;;16.23;12.30;;;;;;;;;;5071978;28;20192;-55
2022/04/06 01:20:10;;;;;;;15.30;13.13;;;;;;;;;;5071910;28;20223;-55
2022/04/06 01:22:37;;;;;;;16.87;13.60;;;;;;;;;;5071785;28;20602;-55
2022/04/06 01:25:05;;;;;;;19.00;14.50;;;;;;;;;;5071483;28;20219;-55
2022/04/06 01:27:31;;;;;;;16.80;13.37;;;;;;;;;;5071470;28;20249;-55
2022/04/06 01:29:57;;;;;;;19.73;15.43;;;;;;;;;;5071624;28;20205;-53
2022/04/06 01:32:23;;;;;;;20.23;15.23;;;;;;;;;;5071549;28;20285;-54
2022/04/06 01:34:50;;;;;;;22.70;14.73;;;;;;;;;;5071455;28;20195;-54
2022/04/06 01:37:16;;;;;;;21.87;15.50;;;;;;;;;;5071599;28;20204;-55
2022/04/06 01:39:45;;;;;;;18.57;15.63;;;;;;;;;;5071648;28;20188;-54
2022/04/06 01:42:12;;;;;;;23.13;16.43;;;;;;;;;;5071546;28;20246;-55
2022/04/06 01:44:38;;;;;;;20.40;16.30;;;;;;;;;;5071540;28;20235;-55
2022/04/06 01:47:06;;;;;;;23.27;16.73;;;;;;;;;;5071376;28;20279;-56
2022/04/06 01:52:17;;;;;;;26.80;17.50;;;;;;;;;;5071448;28;20195;-55
2022/04/06 01:54:45;;;;;;;20.27;16.80;;;;;;;;;;5071567;28;20188;-54
2022/04/06 01:57:12;;;;;;;27.57;19.27;;;;;;;;;;5071275;28;20210;-55
2022/04/06 01:59:38;;;;;;;27.10;17.77;;;;;;;;;;5071863;28;20741;-55
2022/04/06 02:02:04;;;;;;;23.07;18.53;;;;;;;;;;5075135;28;20188;-55
2022/04/06 02:04:31;;;;;;;26.10;18.30;;;;;;;;;;5075146;28;20218;-55
2022/04/06 02:06:57;;;;;;;24.53;17.27;;;;;;;;;;5075053;28;20202;-55
2022/04/06 02:09:23;;;;;;;19.60;17.10;;;;;;;;;;5074943;28;20669;-55
2022/04/06 02:11:50;;;;;;;22.70;18.27;;;;;;;;;;5074919;28;20196;-55
2022/04/06 02:14:17;;;;;;;24.53;19.50;;;;;;;;;;5074695;28;20195;-52
2022/04/06 02:16:43;;;;;;;23.60;19.30;;;;;;;;;;5074996;28;20191;-55
2022/04/06 02:19:09;;;;;;;28.00;19.77;;;;;;;;;;5074764;28;20222;-55
2022/04/06 02:21:36;;;;;;;24.90;18.80;;;;;;;;;;5074850;28;20203;-55
2022/04/06 02:24:02;;;;;;;23.67;19.23;;;;;;;;;;5074615;28;20701;-54
2022/04/06 02:26:28;;;;;;;25.20;18.00;;;;;;;;;;5074749;28;20207;-52
2022/04/06 02:28:55;;;;;;;26.70;19.47;;;;;;;;;;5074650;28;20211;-54
2022/04/06 02:31:21;;;;;;;25.07;19.37;;;;;;;;;;5074503;28;20203;-55
2022/04/06 02:33:47;;;;;;;26.60;19.43;;;;;;;;;;5074693;28;20203;-55
2022/04/06 02:36:13;;;;;;;24.97;19.10;;;;;;;;;;5074621;28;20608;-55
2022/04/06 02:38:39;;;;;;;25.37;20.43;;;;;;;;;;5074618;28;20196;-53
2022/04/06 02:41:06;;;;;;;29.10;20.57;;;;;;;;;;5074408;28;20569;-55
2022/04/06 02:43:32;;;;;;;29.90;20.00;;;;;;;;;;5074455;28;20310;-55
2022/04/06 02:45:59;;;;;;;22.83;19.37;;;;;;;;;;5074573;28;20235;-53
2022/04/06 02:48:25;;;;;;;26.17;20.33;;;;;;;;;;5074241;28;20264;-54
2022/04/06 02:50:51;;;;;;;32.03;21.67;;;;;;;;;;5074215;28;20203;-54
2022/04/06 02:53:17;;;;;;;27.97;21.23;;;;;;;;;;5074195;28;20261;-54
2022/04/06 02:55:43;;;;;;;26.70;20.17;;;;;;;;;;5074286;28;20192;-55
2022/04/06 02:58:09;;;;;;;26.73;19.60;;;;;;;;;;5074020;28;20205;-54
2022/04/06 03:00:35;;;;;;;25.63;19.83;;;;;;;;;;5074173;28;20322;-54
2022/04/06 03:03:03;;;;;;;28.97;20.20;;;;;;;;;;5074088;28;20223;-55
2022/04/06 03:05:29;;;;;;;27.43;20.03;;;;;;;;;;5074058;28;20670;-55
2022/04/06 03:07:55;;;;;;;25.77;20.20;;;;;;;;;;5073973;28;20199;-55
2022/04/06 03:10:22;;;;;;;26.83;20.10;;;;;;;;;;5073323;28;20658;-55
2022/04/06 03:12:48;;;;;;;29.30;20.80;;;;;;;;;;5073899;28;20694;-54
2022/04/06 03:15:14;;;;;;;25.57;18.67;;;;;;;;;;5073742;28;20195;-54
2022/04/06 03:17:41;;;;;;;26.13;19.80;;;;;;;;;;5073674;28;20203;-55
2022/04/06 03:20:10;;;;;;;27.47;18.93;;;;;;;;;;5073644;28;20196;-54
2022/04/06 03:22:36;;;;;;;28.50;19.07;;;;;;;;;;5073624;28;20199;-54
2022/04/06 03:25:03;;;;;;;29.20;18.67;;;;;;;;;;5073584;28;20223;-54
2022/04/06 03:27:28;;;;;;;22.83;17.43;;;;;;;;;;5073552;28;20715;-54
2022/04/06 03:29:54;;;;;;;23.80;17.17;;;;;;;;;;5073550;28;20203;-54
2022/04/06 03:32:21;;;;;;;23.13;17.30;;;;;;;;;;5073432;28;20610;-55
2022/04/06 03:34:47;;;;;;;25.60;17.83;;;;;;;;;;5073663;28;20246;-54
2022/04/06 03:37:14;;;;;;;24.53;16.77;;;;;;;;;;5073349;28;20191;-55
2022/04/06 03:39:40;;;;;;;23.00;17.37;;;;;;;;;;5073579;28;20203;-55
2022/04/06 03:42:06;;;;;;;20.00;16.13;;;;;;;;;;5073269;28;20205;-56
2022/04/06 03:44:32;;;;;;;26.73;16.33;;;;;;;;;;5073104;28;20280;-53
2022/04/06 03:46:58;;;;;;;21.87;15.63;;;;;;;;;;5073248;28;20207;-54
2022/04/06 03:49:24;;;;;;;23.73;15.60;;;;;;;;;;5072980;28;20662;-53
2022/04/06 03:51:51;;;;;;;19.07;15.20;;;;;;;;;;5073054;28;20202;-53
2022/04/06 03:54:18;;;;;;;21.33;14.83;;;;;;;;;;5072949;28;20583;-54
2022/04/06 03:56:44;;;;;;;17.77;14.83;;;;;;;;;;5073032;28;20204;-55
2022/04/06 03:59:11;;;;;;;17.53;14.10;;;;;;;;;;5072656;28;20218;-53
2022/04/06 04:01:37;;;;;;;19.83;14.67;;;;;;;;;;5072646;28;20239;-53
2022/04/06 04:04:04;;;;;;;21.63;14.87;;;;;;;;;;5072579;28;20227;-54
2022/04/06 04:06:30;;;;;;;21.10;14.67;;;;;;;;;;5072698;28;20207;-53
2022/04/06 04:08:56;;;;;;;21.70;14.23;;;;;;;;;;5072686;28;20203;-53
2022/04/06 04:11:23;;;;;;;20.13;13.73;;;;;;;;;;5072506;28;20298;-53
2022/04/06 04:13:49;;;;;;;21.00;12.93;;;;;;;;;;5072561;28;20232;-53
2022/04/06 04:16:15;;;;;;;20.77;13.10;;;;;;;;;;5072574;28;20223;-53
2022/04/06 04:18:42;;;;;;;20.77;12.67;;;;;;;;;;5072460;28;20195;-53
2022/04/06 04:23:52;;;;;;;24.27;13.03;;;;;;;;;;5071560;28;20269;-53
2022/04/06 04:26:18;;;;;;;18.03;12.63;;;;;;;;;;5072212;28;20196;-53
2022/04/06 04:28:46;;;;;;;17.83;11.53;;;;;;;;;;5072486;28;20225;-53
2022/04/06 04:31:12;;;;;;;13.20;11.17;;;;;;;;;;5072115;28;20662;-53
2022/04/06 04:33:38;;;;;;;19.90;12.30;;;;;;;;;;5072294;28;20249;-53
2022/04/06 04:36:04;;;;;;;18.57;11.50;;;;;;;;;;5072215;28;20646;-53
2022/04/06 04:38:30;;;;;;;19.57;11.10;;;;;;;;;;5072376;28;20200;-53
2022/04/06 04:40:57;;;;;;;17.40;11.50;;;;;;;;;;5072215;28;20194;-53
2022/04/06 04:43:23;;;;;;;19.13;10.77;;;;;;;;;;5071917;28;20238;-55
2022/04/06 04:45:51;;;;;;;17.20;11.13;;;;;;;;;;5072079;28;20210;-54
2022/04/06 04:48:17;;;;;;;17.53;10.70;;;;;;;;;;5072069;28;20203;-54
2022/04/06 04:50:43;;;;;;;17.63;10.67;;;;;;;;;;5072222;28;20249;-54
2022/04/06 04:53:09;;;;;;;16.20;10.53;;;;;;;;;;5071971;28;20280;-53
2022/04/06 04:55:35;;;;;;;15.60;11.00;;;;;;;;;;5072001;28;20223;-54
2022/04/06 04:58:01;;;;;;;12.00;9.80;;;;;;;;;;5071933;28;20198;-54
2022/04/06 05:00:27;;;;;;;17.47;10.40;;;;;;;;;;5071660;28;20231;-54
2022/04/06 05:02:54;;;;;;;17.23;10.30;;;;;;;;;;5071848;28;20278;-55
2022/04/06 05:05:20;;;;;;;17.37;11.23;;;;;;;;;;5071688;28;20210;-53
2022/04/06 05:07:46;;;;;;;15.30;10.43;;;;;;;;;;5071802;28;20195;-54
2022/04/06 05:10:12;;;;;;;19.27;10.90;;;;;;;;;;5071834;28;20192;-53
2022/04/06 05:12:39;;;;;;;19.70;10.20;;;;;;;;;;5071729;28;20202;-53
2022/04/06 05:15:06;;;;;;;14.53;10.47;;;;;;;;;;5071584;28;20657;-53
2022/04/06 05:17:34;;;;;;;15.07;10.70;;;;;;;;;;5071730;28;20195;-53
2022/04/06 05:20:01;;;;;;;21.10;11.53;;;;;;;;;;5071829;28;20281;-53
2022/04/06 05:22:27;;;;;;;20.33;10.90;;;;;;;;;;5071941;28;20203;-53
2022/04/06 05:24:53;;;;;;;17.77;10.70;;;;;;;;;;5071365;28;20557;-54
2022/04/06 05:27:19;;;;;;;17.57;10.73;;;;;;;;;;5071582;28;20681;-53
2022/04/06 05:29:46;;;;;;;17.07;10.43;;;;;;;;;;5071789;28;20196;-53
2022/04/06 05:32:12;;;;;;;14.10;10.80;;;;;;;;;;5071574;28;20248;-53
2022/04/06 05:34:38;;;;;;;13.57;11.27;;;;;;;;;;5074089;28;20202;-54
2022/04/06 05:37:05;;;;;;;18.60;11.50;;;;;;;;;;5075624;28;20198;-55
2022/04/06 05:39:31;;;;;;;14.20;11.43;;;;;;;;;;5075520;28;20657;-55
2022/04/06 05:41:57;;;;;;;14.83;11.10;;;;;;;;;;5075629;28;20199;-54
2022/04/06 05:44:23;;;;;;;16.23;11.23;;;;;;;;;;5075189;28;20227;-54
2022/04/06 05:46:49;;;;;;;13.73;11.17;;;;;;;;;;5075486;28;20306;-54
2022/04/06 05:49:15;;;;;;;15.93;11.23;;;;;;;;;;5075107;28;20218;-55
2022/04/06 05:51:41;;;;;;;17.47;11.60;;;;;;;;;;5075256;28;20222;-54
2022/04/06 05:54:08;;;;;;;20.83;12.90;;;;;;;;;;5075238;28;20188;-54
2022/04/06 05:56:34;;;;;;;20.90;12.80;;;;;;;;;;5075373;28;20204;-54
2022/04/06 05:59:00;;;;;;;21.47;13.00;;;;;;;;;;5075129;28;20199;-54
2022/04/06 06:01:26;;;;;;;17.50;12.13;;;;;;;;;;5074716;28;20319;-55
2022/04/06 06:03:52;;;;;;;19.70;13.00;;;;;;;;;;5075091;28;20231;-56
2022/04/06 06:06:18;;;;;;;16.70;12.93;;;;;;;;;;5075022;28;20234;-55
2022/04/06 06:08:44;;;;;;;19.30;12.67;;;;;;;;;;5075044;28;20199;-54
2022/04/06 06:11:12;;;;;;;17.37;12.17;;;;;;;;;;5074687;28;20200;-54
2022/04/06 06:13:38;;;;;;;21.57;13.40;;;;;;;;;;5074873;28;20199;-55
2022/04/06 06:16:05;;;;;;;17.63;12.63;;;;;;;;;;5074519;28;20226;-56
2022/04/06 06:18:31;;;;;;;20.57;13.13;;;;;;;;;;5075021;28;20199;-57
2022/04/06 06:20:59;;;;;;;19.13;13.40;;;;;;;;;;5074943;28;20206;-54
2022/04/06 06:23:25;;;;;;;19.60;13.83;;;;;;;;;;5074507;28;20285;-54
2022/04/06 06:25:51;;;;;;;21.27;12.53;;;;;;;;;;5074616;28;20210;-54
2022/04/06 06:28:18;;;;;;;20.80;12.27;;;;;;;;;;5074510;28;20203;-55
2022/04/06 06:30:44;;;;;;;15.23;12.83;;;;;;;;;;5075028;28;20242;-55
2022/04/06 06:33:10;;;;;;;21.50;12.07;;;;;;;;;;5074466;28;20225;-56
2022/04/06 06:35:36;;;;;;;17.57;12.30;;;;;;;;;;5074408;28;20199;-55
2022/04/06 06:38:03;;;;;;;21.63;12.13;;;;;;;;;;5074458;28;20199;-54
2022/04/06 06:40:29;;;;;;;13.30;11.77;;;;;;;;;;5074468;28;20227;-56
2022/04/06 06:42:55;;;;;;;16.90;12.00;;;;;;;;;;5074312;28;20195;-54
2022/04/06 06:45:23;;;;;;;14.77;11.33;;;;;;;;;;5073327;28;20222;-55
2022/04/06 06:47:49;;;;;;;14.63;11.43;;;;;;;;;;5074327;28;20207;-55
2022/04/06 06:50:15;;;;;;;14.47;10.47;;;;;;;;;;5074275;28;20611;-55
2022/04/06 06:52:41;;;;;;;17.03;12.03;;;;;;;;;;5074436;28;20275;-54
2022/04/06 06:55:08;;;;;;;18.50;12.10;;;;;;;;;;5074098;28;20192;-54
2022/04/06 06:57:34;;;;;;;14.57;10.53;;;;;;;;;;5074059;28;20199;-54
2022/04/06 07:00:00;;;;;;;14.27;10.67;;;;;;;;;;5074044;28;20605;-55
2022/04/06 07:02:27;;;;;;;14.77;10.87;;;;;;;;;;5073824;28;20200;-54
2022/04/06 07:04:53;;;;;;;17.07;11.90;;;;;;;;;;5074082;28;20227;-56
2022/04/06 07:07:19;;;;;;;15.00;9.60;;;;;;;;;;5073740;28;20260;-56
2022/04/06 07:09:45;;;;;;;13.80;9.53;;;;;;;;;;5073994;28;20227;-56
2022/04/06 07:12:11;;;;;;;11.53;8.83;;;;;;;;;;5073877;28;20663;-55
2022/04/06 07:14:37;;;;;;;13.33;9.07;;;;;;;;;;5073586;28;20192;-55
2022/04/06 07:17:03;;;;;;;10.93;9.27;;;;;;;;;;5073739;28;20290;-56
2022/04/06 07:19:31;;;;;;;12.93;8.67;;;;;;;;;;5073507;28;20257;-56
2022/04/06 07:21:57;;;;;;;13.87;8.67;;;;;;;;;;5073909;28;20199;-56
2022/04/06 07:24:23;;;;;;;15.67;8.97;;;;;;;;;;5073439;28;20741;-55
2022/04/06 07:26:49;;;;;;;10.80;7.43;;;;;;;;;;5073552;28;20195;-55
2022/04/06 07:29:15;;;;;;;11.63;7.70;;;;;;;;;;5073600;28;20279;-55
2022/04/06 07:31:41;;;;;;;12.83;7.40;;;;;;;;;;5073543;28;20206;-55
2022/04/06 07:34:07;;;;;;;8.93;8.03;;;;;;;;;;5073463;28;20549;-56
2022/04/06 07:36:34;;;;;;;14.63;8.10;;;;;;;;;;5073410;28;20270;-54
2022/04/06 07:39:02;;;;;;;9.53;7.20;;;;;;;;;;5073511;28;20226;-54
2022/04/06 07:41:28;;;;;;;9.77;6.23;;;;;;;;;;5073350;28;20203;-55
2022/04/06 07:43:54;;;;;;;11.43;6.93;;;;;;;;;;5073062;28;20728;-55
2022/04/06 07:46:20;;;;;;;9.70;6.30;;;;;;;;;;5072985;28;20200;-55
2022/04/06 07:48:46;;;;;;;9.67;5.60;;;;;;;;;;5073149;28;20194;-54
2022/04/06 07:51:12;;;;;;;11.53;6.10;;;;;;;;;;5073079;28;20657;-55
2022/04/06 07:53:39;;;;;;;9.23;5.67;;;;;;;;;;5073116;28;20192;-56
2022/04/06 07:56:06;;;;;;;8.47;6.07;;;;;;;;;;5073003;28;20207;-55
2022/04/06 07:58:32;;;;;;;8.27;5.10;;;;;;;;;;5072888;28;20287;-54
2022/04/06 08:00:59;;;;;;;9.43;5.53;;;;;;;;;;5072903;28;20334;-53
2022/04/06 08:03:25;;;;;;;6.67;5.37;;;;;;;;;;5072689;28;20245;-52
2022/04/06 08:05:50;;;;;;;9.67;5.30;;;;;;;;;;5072838;28;20698;-57
2022/04/06 08:08:17;;;;;;;14.37;5.03;;;;;;;;;;5072733;28;20204;-55
2022/04/06 08:10:44;;;;;;;10.47;5.23;;;;;;;;;;5072890;28;20179;-54
2022/04/06 08:13:10;;;;;;;9.23;5.17;;;;;;;;;;5072472;28;20211;-55
2022/04/06 08:15:36;;;;;;;10.17;5.13;;;;;;;;;;5072568;28;20248;-60
2022/04/06 08:18:02;;;;;;;9.30;5.20;;;;;;;;;;5072593;28;20195;-57
2022/04/06 08:20:28;;;;;;;9.17;4.40;;;;;;;;;;5072651;28;20720;-58
2022/04/06 08:22:56;;;;;;;9.13;4.60;;;;;;;;;;5072626;28;20314;-57
2022/04/06 08:25:22;;;;;;;5.93;4.47;;;;;;;;;;5072128;28;20566;-58
2022/04/06 08:27:50;;;;;;;11.63;4.57;;;;;;;;;;5072338;28;20287;-59
2022/04/06 08:30:22;;;;;;;10.50;5.30;;;;;;;;;;5072359;28;20199;-58
2022/04/06 08:32:48;;;;;;;8.27;4.30;;;;;;;;;;5072387;28;20282;-59
2022/04/06 08:35:14;;;;;;;5.93;4.30;;;;;;;;;;5072376;28;20222;-58
2022/04/06 08:37:41;;;;;;;7.83;4.17;;;;;;;;;;5072544;28;20203;-58
2022/04/06 08:40:07;;;;;;;9.30;4.63;;;;;;;;;;5072306;28;20857;-60
2022/04/06 08:42:34;;;;;;;7.23;4.00;;;;;;;;;;5072439;28;20274;-59
2022/04/06 08:45:01;;;;;;;6.10;3.80;;;;;;;;;;5072259;28;20228;-58
2022/04/06 08:47:29;;;;;;;9.20;4.20;;;;;;;;;;5072170;28;20195;-57
2022/04/06 08:49:56;;;;;;;7.50;3.97;;;;;;;;;;5072017;28;20662;-58
2022/04/06 08:52:22;;;;;;;6.00;3.67;;;;;;;;;;5072133;28;20506;-59
2022/04/06 08:54:48;;;;;;;6.13;3.57;;;;;;;;;;5072281;28;20192;-59
2022/04/06 08:57:14;;;;;;;7.33;3.30;;;;;;;;;;5072216;28;20199;-59
2022/04/06 08:59:40;;;;;;;6.30;3.60;;;;;;;;;;5072054;28;20357;-57
2022/04/06 09:02:08;;;;;;;6.83;3.37;;;;;;;;;;5072118;28;20683;-57
2022/04/06 09:04:35;;;;;;;8.03;3.47;;;;;;;;;;5071725;28;20223;-58
2022/04/06 09:07:07;;;;;;;6.80;3.20;;;;;;;;;;5071938;28;20661;-58
2022/04/06 09:09:34;;;;;;;9.07;3.53;;;;;;;;;;5071297;28;20752;-59
2022/04/06 09:12:05;;;;;;;7.67;3.43;;;;;;;;;;5071773;28;20207;-58
2022/04/06 09:14:32;;;;;;;5.63;3.37;;;;;;;;;;5071997;28;20188;-59
2022/04/06 09:17:02;;;;;;;8.50;3.50;;;;;;;;;;5072000;28;20278;-58
2022/04/06 09:19:30;;;;;;;5.07;3.10;;;;;;;;;;5071863;28;20202;-57
2022/04/06 09:21:56;;;;;;;7.33;3.37;;;;;;;;;;5072028;28;20195;-58
2022/04/06 09:24:24;;;;;;;6.30;3.33;;;;;;;;;;5071455;28;20714;-58
2022/04/06 09:26:55;;;;;;;6.70;3.10;;;;;;;;;;5071694;28;20207;-59
2022/04/06 09:29:21;;;;;;;6.13;3.50;;;;;;;;;;5071769;28;20241;-57
2022/04/06 09:31:49;;;;;;;5.67;2.90;;;;;;;;;;5071935;28;20192;-59
2022/04/06 09:34:15;;;;;;;5.10;3.37;;;;;;;;;;5071752;28;20200;-59
2022/04/06 09:36:42;;;;;;;6.43;3.53;;;;;;;;;;5071542;28;20219;-59
2022/04/06 09:39:09;;;;;;;6.63;3.67;;;;;;;;;;5071593;28;20598;-58
2022/04/06 09:41:57;;;;;;;6.20;3.87;;;;;;;;;;5071421;28;20224;-57
2022/04/06 09:50:12;;;;;;;5.17;3.50;;;;;;;;;;5071758;28;20709;-59
2022/04/06 09:52:38;;;;;;;11.40;4.33;;;;;;;;;;5069204;28;20195;-57
2022/04/06 09:55:06;;;;;;;11.13;4.20;;;;;;;;;;5071485;28;20563;-58
2022/04/06 09:57:34;;;;;;;5.50;3.97;;;;;;;;;;5071405;28;20206;-58
2022/04/06 10:00:02;;;;;;;9.20;5.00;;;;;;;;;;5071565;28;20301;-59
2022/04/06 10:02:28;;;;;;;5.90;3.80;;;;;;;;;;5071461;28;20222;-58
2022/04/06 10:04:55;;;;;;;7.10;4.40;;;;;;;;;;5071230;28;20243;-57
2022/04/06 10:07:23;;;;;;;8.00;4.50;;;;;;;;;;5071313;28;20613;-59
2022/04/06 10:09:50;;;;;;;7.63;4.97;;;;;;;;;;5071518;28;20207;-58
2022/04/06 10:12:17;;;;;;;8.27;4.47;;;;;;;;;;5071000;28;20233;-57
2022/04/06 10:14:43;;;;;;;6.43;4.30;;;;;;;;;;5071577;28;20183;-58
2022/04/06 10:17:11;;;;;;;13.27;4.00;;;;;;;;;;5071392;28;20322;-58
2022/04/06 10:19:40;;;;;;;8.13;4.40;;;;;;;;;;5071368;28;20203;-59
2022/04/06 10:22:11;;;;;;;6.17;4.00;;;;;;;;;;5074234;28;20424;-59
2022/04/06 10:24:43;;;;;;;6.57;3.90;;;;;;;;;;5074796;28;20239;-59
2022/04/06 10:27:15;;;;;;;9.53;5.00;;;;;;;;;;5074937;28;20565;-59
2022/04/06 10:30:05;;;;;;;7.33;4.50;;;;;;;;;;5074855;28;20222;-59
2022/04/06 10:32:36;;;;;;;10.00;4.53;;;;;;;;;;5074570;28;20288;-59
2022/04/06 10:35:20;;;;;;;5.77;3.83;;;;;;;;;;5074793;28;20564;-61
2022/04/06 10:37:53;;;;;;;6.07;3.97;;;;;;;;;;5074614;28;20198;-59
2022/04/06 10:40:21;;;;;;;7.33;3.93;;;;;;;;;;5074399;28;20207;-59
2022/04/06 10:42:47;;;;;;;6.93;3.73;;;;;;;;;;5074575;28;20199;-60
2022/04/06 10:45:29;;;;;;;6.83;3.80;;;;;;;;;;5074457;28;20234;-58
2022/04/06 10:48:16;;;;;;;5.27;3.47;;;;;;;;;;5074371;28;20199;-59
2022/04/06 10:50:44;;;;;;;5.53;3.07;;;;;;;;;;5069471;28;20203;-59
2022/04/06 10:53:26;;;;;;;6.77;3.47;;;;;;;;;;5074250;28;20669;-59
2022/04/06 10:55:57;;;;;;;5.03;3.10;;;;;;;;;;5074468;28;20207;-60
2022/04/06 10:58:25;;;;;;;4.57;2.80;;;;;;;;;;5073981;28;20211;-59
2022/04/06 11:01:06;;;;;;;5.23;3.33;;;;;;;;;;5074236;28;20318;-59
2022/04/06 11:03:34;;;;;;;5.33;3.37;;;;;;;;;;5073622;28;20199;-58
2022/04/06 11:06:02;;;;;;;7.47;3.40;;;;;;;;;;5074284;28;20196;-59
2022/04/06 11:11:38;;;;;;;7.33;3.97;;;;;;;;;;5073905;28;20194;-58
2022/04/06 11:14:05;;;;;;;6.60;3.87;;;;;;;;;;5073827;28;20192;-60
2022/04/06 11:16:40;;;;;;;5.70;3.53;;;;;;;;;;5073847;28;20272;-59
2022/04/06 11:19:07;;;;;;;9.60;4.00;;;;;;;;;;5073892;28;20219;-58
2022/04/06 11:21:34;;;;;;;6.30;3.70;;;;;;;;;;5073807;28;20219;-59
2022/04/06 11:24:01;;;;;;;6.53;3.10;;;;;;;;;;5073742;28;20245;-59
2022/04/06 11:26:27;;;;;;;7.83;4.07;;;;;;;;;;5073599;28;20720;-58
2022/04/06 11:28:56;;;;;;;7.97;3.63;;;;;;;;;;5073709;28;20283;-59
2022/04/06 11:31:22;;;;;;;5.10;3.10;;;;;;;;;;5071386;28;20214;-58
2022/04/06 11:33:48;;;;;;;6.07;3.23;;;;;;;;;;5073674;28;20275;-57
2022/04/06 11:36:14;;;;;;;5.33;3.20;;;;;;;;;;5073583;28;20647;-59
2022/04/06 11:38:42;;;;;;;7.70;3.70;;;;;;;;;;5073480;28;20779;-58
2022/04/06 11:41:08;;;;;;;4.60;3.20;;;;;;;;;;5073311;28;20230;-58
2022/04/06 11:43:36;;;;;;;8.20;3.47;;;;;;;;;;5073165;28;20196;-58
2022/04/06 11:46:02;;;;;;;5.47;3.33;;;;;;;;;;5073396;28;20195;-58
2022/04/06 11:48:38;;;;;;;7.00;3.80;;;;;;;;;;5073246;28;20223;-59
2022/04/06 11:51:04;;;;;;;5.70;3.40;;;;;;;;;;5073236;28;20249;-58
2022/04/06 11:53:30;;;;;;;6.13;3.67;;;;;;;;;;5073163;28;20723;-59
2022/04/06 11:56:00;;;;;;;6.03;4.73;;;;;;;;;;5073180;28;20245;-59
2022/04/06 11:58:30;;;;;;;6.40;4.30;;;;;;;;;;5072949;28;20666;-59
2022/04/06 12:00:59;;;;;;;6.37;4.73;;;;;;;;;;5072913;28;20236;-58
2022/04/06 12:03:27;;;;;;;6.57;5.50;;;;;;;;;;5072640;28;20230;-58
2022/04/06 12:05:55;;;;;;;7.40;5.57;;;;;;;;;;5072611;28;20195;-59
2022/04/06 12:08:22;;;;;;;8.47;6.47;;;;;;;;;;5072916;28;20344;-59
2022/04/06 12:10:49;;;;;;;9.83;6.20;;;;;;;;;;5072787;28;20692;-58
2022/04/06 12:13:17;;;;;;;7.33;5.73;;;;;;;;;;5072950;28;20211;-58
2022/04/06 12:15:43;;;;;;;7.47;6.10;;;;;;;;;;5072625;28;20658;-58
2022/04/06 12:18:09;;;;;;;6.63;6.03;;;;;;;;;;5072785;28;20203;-57
2022/04/06 12:20:35;;;;;;;7.30;5.70;;;;;;;;;;5072556;28;20290;-58
2022/04/06 12:23:01;;;;;;;6.40;5.80;;;;;;;;;;5072477;28;20298;-57
2022/04/06 12:25:28;;;;;;;7.53;6.10;;;;;;;;;;5072367;28;20267;-57
2022/04/06 12:28:08;;;;;;;6.73;6.03;;;;;;;;;;5072551;28;20266;-58
2022/04/06 12:30:36;;;;;;;6.50;5.90;;;;;;;;;;5072530;28;20226;-57
2022/04/06 12:33:02;;;;;;;8.73;6.00;;;;;;;;;;5072462;28;20195;-62
2022/04/06 12:35:28;;;;;;;5.87;5.27;;;;;;;;;;5071059;28;20198;-58
2022/04/06 12:37:54;;;;;;;8.47;5.67;;;;;;;;;;5072534;28;20200;-57
2022/04/06 12:40:21;;;;;;;6.17;5.33;;;;;;;;;;5072297;28;20617;-58
2022/04/06 12:42:47;;;;;;;6.93;5.60;;;;;;;;;;5071799;28;20727;-59
2022/04/06 12:45:13;;;;;;;5.93;5.33;;;;;;;;;;5072005;28;20701;-58
2022/04/06 12:47:43;;;;;;;7.17;5.20;;;;;;;;;;5072220;28;20196;-59
2022/04/06 12:50:10;;;;;;;6.10;5.50;;;;;;;;;;5072088;28;20224;-59
2022/04/06 12:52:37;;;;;;;7.10;5.33;;;;;;;;;;5071524;28;20195;-58
2022/04/06 12:55:05;;;;;;;10.27;5.37;;;;;;;;;;5072232;28;20200;-59
2022/04/06 12:57:32;;;;;;;5.67;5.17;;;;;;;;;;5072062;28;20203;-58
2022/04/06 12:59:58;;;;;;;6.17;5.57;;;;;;;;;;5072170;28;20285;-58
2022/04/06 13:02:25;;;;;;;6.33;5.77;;;;;;;;;;5072044;28;20238;-58
2022/04/06 13:04:55;;;;;;;5.63;5.13;;;;;;;;;;5072050;28;20235;-59
2022/04/06 13:07:21;;;;;;;5.70;5.20;;;;;;;;;;5071843;28;20703;-58
2022/04/06 13:09:51;;;;;;;7.97;5.70;;;;;;;;;;5072092;28;20195;-56
2022/04/06 13:12:17;;;;;;;7.27;5.93;;;;;;;;;;5071840;28;20187;-58
2022/04/06 13:14:43;;;;;;;6.37;5.87;;;;;;;;;;5071993;28;20238;-58
2022/04/06 13:17:09;;;;;;;6.10;5.47;;;;;;;;;;5067058;28;20253;-58
2022/04/06 13:19:35;;;;;;;6.30;5.80;;;;;;;;;;5061511;28;20218;-58
2022/04/06 13:22:03;;;;;;;8.70;6.33;;;;;;;;;;5061452;28;20542;-59
2022/04/06 13:24:29;;;;;;;5.70;5.20;;;;;;;;;;5059879;28;20584;-56
2022/04/06 13:26:55;;;;;;;5.63;5.07;;;;;;;;;;5060059;28;20196;-59
2022/04/06 13:29:21;;;;;;;5.73;5.10;;;;;;;;;;5061189;28;20195;-58
2022/04/06 13:31:47;;;;;;;6.03;5.53;;;;;;;;;;5059575;28;20227;-59
2022/04/06 13:34:16;;;;;;;5.30;4.83;;;;;;;;;;5060116;28;20191;-58
2022/04/06 13:36:43;;;;;;;5.23;4.73;;;;;;;;;;5061171;28;20727;-58
2022/04/06 13:39:10;;;;;;;8.47;5.30;;;;;;;;;;5059716;28;20208;-58
2022/04/06 13:41:36;;;;;;;6.83;5.27;;;;;;;;;;5059633;28;20200;-59
2022/04/06 13:44:02;;;;;;;5.23;4.80;;;;;;;;;;5061039;28;20230;-57
2022/04/06 13:46:28;;;;;;;6.13;5.00;;;;;;;;;;5058234;28;20232;-58
2022/04/06 13:48:57;;;;;;;5.43;4.93;;;;;;;;;;5060143;28;20239;-59
2022/04/06 13:51:23;;;;;;;5.43;4.93;;;;;;;;;;5061057;28;20213;-58
2022/04/06 13:53:49;;;;;;;5.90;4.80;;;;;;;;;;5059679;28;20206;-57
2022/04/06 13:56:17;;;;;;;5.60;5.10;;;;;;;;;;5063258;28;20290;-58
2022/04/06 13:58:43;;;;;;;4.80;4.30;;;;;;;;;;5065190;28;20252;-58
2022/04/06 14:01:09;;;;;;;4.37;3.97;;;;;;;;;;5063381;28;20228;-57
2022/04/06 14:03:35;;;;;;;5.63;4.00;;;;;;;;;;5074955;28;20195;-59
2022/04/06 14:06:02;;;;;;;4.03;3.73;;;;;;;;;;5075014;28;20203;-58
2022/04/06 14:08:28;;;;;;;4.73;3.83;;;;;;;;;;5075304;28;20250;-57
2022/04/06 14:10:54;;;;;;;4.77;3.80;;;;;;;;;;5075219;28;20283;-57
2022/04/06 14:13:21;;;;;;;3.73;3.40;;;;;;;;;;5075033;28;20556;-57
2022/04/06 14:15:48;;;;;;;4.13;3.30;;;;;;;;;;5075162;28;20274;-60
2022/04/06 14:18:14;;;;;;;4.00;3.17;;;;;;;;;;5075255;28;20199;-58
2022/04/06 14:20:40;;;;;;;4.43;3.67;;;;;;;;;;5074769;28;20203;-60
2022/04/06 14:23:06;;;;;;;3.67;3.37;;;;;;;;;;5075086;28;20541;-58
2022/04/06 14:25:32;;;;;;;3.70;3.40;;;;;;;;;;5074793;28;20227;-58
2022/04/06 14:27:59;;;;;;;5.37;3.53;;;;;;;;;;5074970;28;20199;-57
2022/04/06 14:30:26;;;;;;;4.60;3.80;;;;;;;;;;5074815;28;20203;-57
2022/04/06 14:32:52;;;;;;;4.07;3.53;;;;;;;;;;5074825;28;20241;-57
2022/04/06 14:35:18;;;;;;;6.10;3.83;;;;;;;;;;5074408;28;20805;-57
2022/04/06 14:37:45;;;;;;;4.97;3.60;;;;;;;;;;5074847;28;20203;-56
2022/04/06 14:40:12;;;;;;;4.70;3.73;;;;;;;;;;5074683;28;20208;-56
2022/04/06 14:42:38;;;;;;;4.13;3.80;;;;;;;;;;5074450;28;20207;-57